CEFAS Endeavour — VQHF3 — position and weather

sailwx.info

Track history (hours):
 
Tides and Currents Weather Stations Pressure Air Temp Water Temp Dewpoint Dewpoint Depression Visibility Wind Speed Wind Dir Waves Ship Positions

Oceanographic research ship CEFAS Endeavour (UK)

Detailed information on ship capabilities available from University of Delaware's Ocean Information Center.

Last reported at 2014-Nov-22 09:20 UTC. Time now 2014-Nov-23 20:04 UTC.
Position N 50°41' W 005°17'.

Length 74 m; draft 5.3 m.

Type: Cargo ship. MMSI: 235005270.

Date/timePositionNaut miles runAvg speedWind from/ knotsBaromVisibWave heightAir tempDewpointWater temp
2014-Nov-22 09:20N 50°41' W 005°17'  
2014-Nov-16 14:09N 50°08' W 003°18'5 8.5
2014-Nov-16 13:32N 50°08' W 003°10'134 9.5
2014-Nov-15 23:20N 50°36' E 000°17'8 9.8
2014-Nov-15 22:33N 50°38' E 000°28'10 9.7
2014-Nov-15 21:33N 50°42' E 000°42'10 9.7
2014-Nov-15 20:33N 50°48' E 000°54'20 8.8
2014-Nov-15 18:19N 50°60' E 001°19'6 8.0
2014-Nov-15 17:31N 51°04' E 001°27'7 7.6
2014-Nov-15 16:33N 51°09' E 001°35'8 8.0
2014-Nov-15 15:33N 51°16' E 001°41'9 9.3
2014-Nov-15 14:33N 51°25' E 001°45'10 9.6
2014-Nov-15 13:33N 51°33' E 001°53'0 0.3
2014-Nov-15 12:33N 51°33' E 001°53'0 0.4
2014-Nov-15 11:34N 51°33' E 001°53'1 0.5
2014-Nov-15 10:32N 51°33' E 001°53'1 0.6
2014-Nov-15 09:33N 51°34' E 001°53'1 0.8
2014-Nov-15 08:33N 51°34' E 001°54'2 2.4
2014-Nov-15 07:33N 51°35' E 001°50'1010.3
2014-Nov-15 06:33N 51°45' E 001°44'1111.2
2014-Nov-15 05:33N 51°56' E 001°45'1110.8
2014-Nov-15 04:33N 51°59' E 002°01'10 9.8
2014-Nov-15 03:33N 52°09' E 001°58'1312.4
2014-Nov-15 02:33N 52°21' E 001°51'9 8.7
2014-Nov-15 01:33N 52°28' E 001°45'0 0.3
2014-Nov-15 00:34N 52°28' E 001°45'0 0.0
2014-Nov-14 23:34N 52°28' E 001°45'0 0.0
2014-Nov-14 22:21N 52°28' E 001°45'0 0.0
2014-Nov-14 21:22N 52°28' E 001°45'0 0.0
2014-Nov-14 20:31N 52°28' E 001°45'0 0.0
2014-Nov-14 19:22N 52°28' E 001°45'0 0.0
2014-Nov-14 18:27N 52°28' E 001°45'0 0.0
2014-Nov-14 17:27N 52°28' E 001°45'0 0.0
2014-Nov-14 16:33N 52°28' E 001°45'0 0.0
2014-Nov-14 15:34N 52°28' E 001°45'0 0.0
2014-Nov-14 12:21N 52°28' E 001°45'0 0.0
2014-Nov-14 11:27N 52°28' E 001°45'0 0.0
2014-Nov-14 10:09N 52°28' E 001°45'0 0.0
2014-Nov-14 09:33N 52°28' E 001°45'0 0.0
2014-Nov-14 08:33N 52°28' E 001°45'0 0.0
2014-Nov-14 07:33N 52°28' E 001°45'0 0.0
2014-Nov-14 06:30N 52°28' E 001°45'0 0.0
2014-Nov-14 05:34N 52°28' E 001°45'0 0.0
2014-Nov-14 04:34N 52°28' E 001°45'0 0.0
2014-Nov-14 03:34N 52°28' E 001°45'0 0.0
2014-Nov-14 02:33N 52°28' E 001°45'0 0.0
2014-Nov-14 01:34N 52°28' E 001°45'0 0.0
2014-Nov-14 00:34N 52°28' E 001°45'0 0.0
2014-Nov-13 23:33N 52°28' E 001°45'0 0.0
2014-Nov-13 22:34N 52°28' E 001°45'0 0.0
2014-Nov-13 21:34N 52°28' E 001°45'0 0.0
2014-Nov-13 20:33N 52°28' E 001°45'0 0.0
2014-Nov-13 19:31N 52°28' E 001°45'0 0.0
2014-Nov-13 18:15N 52°28' E 001°45'0 0.0
2014-Nov-13 17:33N 52°28' E 001°45'0 0.0
2014-Nov-13 16:34N 52°28' E 001°45'0 0.0
2014-Nov-13 15:33N 52°28' E 001°45'0 0.0
2014-Nov-13 14:33N 52°28' E 001°45'0 0.0
2014-Nov-13 13:34N 52°28' E 001°45'0 0.0
2014-Nov-13 12:34N 52°28' E 001°45'0 0.0
2014-Nov-13 11:34N 52°28' E 001°45'0 0.0
2014-Nov-13 10:34N 52°28' E 001°45'0 0.0
2014-Nov-13 07:31N 52°28' E 001°45'0 0.0
2014-Nov-13 06:33N 52°28' E 001°45'0 0.0
2014-Nov-13 05:34N 52°28' E 001°45'0 0.0
2014-Nov-13 04:33N 52°28' E 001°45'0 0.0
2014-Nov-13 03:33N 52°28' E 001°45'0 0.0
2014-Nov-13 02:34N 52°28' E 001°45'0 0.0
2014-Nov-13 01:33N 52°28' E 001°45'0 0.0
2014-Nov-13 00:33N 52°28' E 001°45'0 0.0
2014-Nov-12 23:34N 52°28' E 001°45'0 0.0
2014-Nov-12 22:33N 52°28' E 001°45'0 0.0
2014-Nov-12 21:33N 52°28' E 001°45'0 0.0
2014-Nov-12 20:30N 52°28' E 001°45'0 0.0
2014-Nov-12 19:30N 52°28' E 001°45'0 0.0
2014-Nov-12 18:33N 52°28' E 001°45'0 0.0
2014-Nov-12 17:33N 52°28' E 001°45'0 0.0
2014-Nov-12 16:31N 52°28' E 001°45'0 0.0
2014-Nov-12 15:33N 52°28' E 001°45'0 0.0
2014-Nov-12 14:34N 52°28' E 001°45'0 0.0
2014-Nov-12 13:24N 52°28' E 001°45'0 0.0
2014-Nov-12 12:34N 52°28' E 001°45'0 0.0
2014-Nov-12 11:30N 52°28' E 001°45'0 0.0
2014-Nov-12 10:34N 52°28' E 001°45'0 0.0
2014-Nov-12 09:33N 52°28' E 001°45'  
Track history (hours):
 
Tides and Currents Weather Stations Pressure Air Temp Water Temp Dewpoint Dewpoint Depression Visibility Wind Speed Wind Dir Waves Ship Positions

Oceanographic research ship CEFAS Endeavour (UK)

Detailed information on ship capabilities available from University of Delaware's Ocean Information Center.

Last reported at 2014-Nov-22 09:20 UTC. Time now 2014-Nov-23 20:04 UTC.
Position N 50°41' W 005°17'.

Length 74 m; draft 5.3 m.

Type: Cargo ship. MMSI: 235005270.

Date/timePositionNaut miles runAvg speedWind from/ knotsBaromVisibWave heightAir tempDewpointWater temp
2014-Nov-22 09:20N 50°41' W 005°17'  
2014-Nov-16 14:09N 50°08' W 003°18'5 8.5
2014-Nov-16 13:32N 50°08' W 003°10'134 9.5
2014-Nov-15 23:20N 50°36' E 000°17'8 9.8
2014-Nov-15 22:33N 50°38' E 000°28'10 9.7
2014-Nov-15 21:33N 50°42' E 000°42'10 9.7
2014-Nov-15 20:33N 50°48' E 000°54'20 8.8
2014-Nov-15 18:19N 50°60' E 001°19'6 8.0
2014-Nov-15 17:31N 51°04' E 001°27'7 7.6
2014-Nov-15 16:33N 51°09' E 001°35'8 8.0
2014-Nov-15 15:33N 51°16' E 001°41'9 9.3
2014-Nov-15 14:33N 51°25' E 001°45'10 9.6
2014-Nov-15 13:33N 51°33' E 001°53'0 0.3
2014-Nov-15 12:33N 51°33' E 001°53'0 0.4
2014-Nov-15 11:34N 51°33' E 001°53'1 0.5
2014-Nov-15 10:32N 51°33' E 001°53'1 0.6
2014-Nov-15 09:33N 51°34' E 001°53'1 0.8
2014-Nov-15 08:33N 51°34' E 001°54'2 2.4
2014-Nov-15 07:33N 51°35' E 001°50'1010.3
2014-Nov-15 06:33N 51°45' E 001°44'1111.2
2014-Nov-15 05:33N 51°56' E 001°45'1110.8
2014-Nov-15 04:33N 51°59' E 002°01'10 9.8
2014-Nov-15 03:33N 52°09' E 001°58'1312.4
2014-Nov-15 02:33N 52°21' E 001°51'9 8.7
2014-Nov-15 01:33N 52°28' E 001°45'0 0.3
2014-Nov-15 00:34N 52°28' E 001°45'0 0.0
2014-Nov-14 23:34N 52°28' E 001°45'0 0.0
2014-Nov-14 22:21N 52°28' E 001°45'0 0.0
2014-Nov-14 21:22N 52°28' E 001°45'0 0.0
2014-Nov-14 20:31N 52°28' E 001°45'0 0.0
2014-Nov-14 19:22N 52°28' E 001°45'0 0.0
2014-Nov-14 18:27N 52°28' E 001°45'0 0.0
2014-Nov-14 17:27N 52°28' E 001°45'0 0.0
2014-Nov-14 16:33N 52°28' E 001°45'0 0.0
2014-Nov-14 15:34N 52°28' E 001°45'0 0.0
2014-Nov-14 12:21N 52°28' E 001°45'0 0.0
2014-Nov-14 11:27N 52°28' E 001°45'0 0.0
2014-Nov-14 10:09N 52°28' E 001°45'0 0.0
2014-Nov-14 09:33N 52°28' E 001°45'0 0.0
2014-Nov-14 08:33N 52°28' E 001°45'0 0.0
2014-Nov-14 07:33N 52°28' E 001°45'0 0.0
2014-Nov-14 06:30N 52°28' E 001°45'0 0.0
2014-Nov-14 05:34N 52°28' E 001°45'0 0.0
2014-Nov-14 04:34N 52°28' E 001°45'0 0.0
2014-Nov-14 03:34N 52°28' E 001°45'0 0.0
2014-Nov-14 02:33N 52°28' E 001°45'0 0.0
2014-Nov-14 01:34N 52°28' E 001°45'0 0.0
2014-Nov-14 00:34N 52°28' E 001°45'0 0.0
2014-Nov-13 23:33N 52°28' E 001°45'0 0.0
2014-Nov-13 22:34N 52°28' E 001°45'0 0.0
2014-Nov-13 21:34N 52°28' E 001°45'0 0.0
2014-Nov-13 20:33N 52°28' E 001°45'0 0.0
2014-Nov-13 19:31N 52°28' E 001°45'0 0.0
2014-Nov-13 18:15N 52°28' E 001°45'0 0.0
2014-Nov-13 17:33N 52°28' E 001°45'0 0.0
2014-Nov-13 16:34N 52°28' E 001°45'0 0.0
2014-Nov-13 15:33N 52°28' E 001°45'0 0.0
2014-Nov-13 14:33N 52°28' E 001°45'0 0.0
2014-Nov-13 13:34N 52°28' E 001°45'0 0.0
2014-Nov-13 12:34N 52°28' E 001°45'0 0.0
2014-Nov-13 11:34N 52°28' E 001°45'0 0.0
2014-Nov-13 10:34N 52°28' E 001°45'0 0.0
2014-Nov-13 07:31N 52°28' E 001°45'0 0.0
2014-Nov-13 06:33N 52°28' E 001°45'0 0.0
2014-Nov-13 05:34N 52°28' E 001°45'0 0.0
2014-Nov-13 04:33N 52°28' E 001°45'0 0.0
2014-Nov-13 03:33N 52°28' E 001°45'0 0.0
2014-Nov-13 02:34N 52°28' E 001°45'0 0.0
2014-Nov-13 01:33N 52°28' E 001°45'0 0.0
2014-Nov-13 00:33N 52°28' E 001°45'0 0.0
2014-Nov-12 23:34N 52°28' E 001°45'0 0.0
2014-Nov-12 22:33N 52°28' E 001°45'0 0.0
2014-Nov-12 21:33N 52°28' E 001°45'0 0.0
2014-Nov-12 20:30N 52°28' E 001°45'0 0.0
2014-Nov-12 19:30N 52°28' E 001°45'0 0.0
2014-Nov-12 18:33N 52°28' E 001°45'0 0.0
2014-Nov-12 17:33N 52°28' E 001°45'0 0.0
2014-Nov-12 16:31N 52°28' E 001°45'0 0.0
2014-Nov-12 15:33N 52°28' E 001°45'0 0.0
2014-Nov-12 14:34N 52°28' E 001°45'0 0.0
2014-Nov-12 13:24N 52°28' E 001°45'0 0.0
2014-Nov-12 12:34N 52°28' E 001°45'0 0.0
2014-Nov-12 11:30N 52°28' E 001°45'0 0.0
2014-Nov-12 10:34N 52°28' E 001°45'0 0.0
2014-Nov-12 09:33N 52°28' E 001°45'  

Dump ship's entire track history